createdAt,value
2023-09-30T00:03:02.206Z,96899.38
2023-09-30T00:09:04.302Z,96906.97
2023-09-30T00:15:06.346Z,96910.28
2023-09-30T00:21:08.845Z,96903.88
2023-09-30T00:27:10.729Z,96912.03
2023-09-30T00:33:12.579Z,96916.66
2023-09-30T00:39:14.529Z,96905.66
2023-09-30T00:45:16.233Z,96921.03
2023-09-30T00:51:18.362Z,96914.75
2023-09-30T00:57:21.956Z,96911.53
2023-09-30T01:03:24.430Z,96926.56
2023-09-30T01:09:26.563Z,96932.25
2023-09-30T01:15:30.324Z,96930.56
2023-09-30T01:21:35.631Z,96934.38
2023-09-30T01:27:37.275Z,96933.81
2023-09-30T01:33:39.634Z,96930.28
2023-09-30T01:39:41.207Z,96935.06
2023-09-30T01:45:44.065Z,96931.78
2023-09-30T01:51:47.050Z,96938.06
2023-09-30T01:57:48.691Z,96934.03
2023-09-30T02:03:50.830Z,96938.28
2023-09-30T02:09:52.440Z,96940.06
2023-09-30T02:15:56.619Z,96949.53
2023-09-30T02:21:58.460Z,96946.34
2023-09-30T02:28:00.329Z,96944.81
2023-09-30T02:34:04.921Z,96946.34
2023-09-30T02:40:10.397Z,96948.81
2023-09-30T02:46:13.772Z,96932.84
2023-09-30T02:52:15.488Z,96930.69
2023-09-30T02:58:17.140Z,96946.44
2023-09-30T03:04:20.450Z,96940.66
2023-09-30T03:10:25.093Z,96936.59
2023-09-30T03:16:26.950Z,96931.41
2023-09-30T03:22:28.516Z,96932.69
2023-09-30T03:28:30.179Z,96943.03
2023-09-30T03:34:31.761Z,96924.78
2023-09-30T03:40:35.068Z,96947.28
2023-09-30T03:46:36.711Z,96951.31
2023-09-30T03:52:38.512Z,96951.53
2023-09-30T03:58:41.354Z,96959.59
2023-09-30T04:04:43.490Z,96948.94
2023-09-30T04:10:45.171Z,96947.78
2023-09-30T04:16:46.741Z,96955.31
2023-09-30T04:22:50.187Z,96970.09
2023-09-30T04:28:52.715Z,96966.56
2023-09-30T04:34:54.747Z,96963.84
2023-09-30T04:40:57.560Z,96945.13
2023-09-30T04:46:59.201Z,96964.16
2023-09-30T04:53:00.883Z,96958.47
2023-09-30T04:59:03.324Z,96971.56
2023-09-30T05:05:08.481Z,96970.91
2023-09-30T05:11:10.076Z,96981.88
2023-09-30T05:17:12.525Z,96995.97
2023-09-30T05:23:15.757Z,96990.22
2023-09-30T05:29:17.952Z,96985.06
2023-09-30T05:35:19.601Z,96999.22
2023-09-30T05:41:21.939Z,97005.59
2023-09-30T05:47:23.709Z,97028.94
2023-09-30T05:53:26.197Z,97029.78
2023-09-30T05:59:29.178Z,97022.59
2023-09-30T06:05:31.632Z,97030.13
2023-09-30T06:11:33.627Z,97034.94
2023-09-30T06:17:35.284Z,97032.16
2023-09-30T06:23:36.936Z,97029.19
2023-09-30T06:29:41.823Z,97062.38
2023-09-30T06:35:51.357Z,97061.50
2023-09-30T06:41:52.929Z,97048.53
2023-09-30T06:47:55.959Z,97067.59
2023-09-30T06:53:57.621Z,97065.75
2023-09-30T06:59:59.296Z,97063.91
2023-09-30T07:06:01.796Z,97081.94
2023-09-30T07:12:03.407Z,97081.16
2023-09-30T07:18:05.290Z,97081.03
2023-09-30T07:24:07.244Z,97086.50
2023-09-30T07:30:09.231Z,97092.38
2023-09-30T07:36:10.868Z,97101.59
2023-09-30T07:42:12.289Z,97108.97
2023-09-30T07:48:15.942Z,97101.41
2023-09-30T07:54:30.780Z,97115.56
2023-09-30T08:00:34.995Z,97127.00
2023-09-30T08:06:36.827Z,97127.56
2023-09-30T08:12:38.573Z,97118.66
2023-09-30T08:18:40.209Z,97092.28
2023-09-30T08:24:42.759Z,97115.09
2023-09-30T08:30:44.472Z,97115.97
2023-09-30T08:36:46.086Z,97124.75
2023-09-30T08:42:52.471Z,97120.09
2023-09-30T08:48:56.630Z,97142.59
2023-09-30T08:54:58.369Z,97131.91
2023-09-30T09:01:00.044Z,97117.50
2023-09-30T09:07:01.774Z,97119.91
2023-09-30T09:13:03.525Z,97112.66
2023-09-30T09:19:16.336Z,97113.44
2023-09-30T09:25:18.225Z,97126.84
2023-09-30T09:31:24.917Z,97130.53
2023-09-30T09:37:26.515Z,97111.44
2023-09-30T09:43:28.187Z,97102.56
2023-09-30T09:49:33.817Z,97094.09
2023-09-30T09:55:37.764Z,97086.19
2023-09-30T10:01:41.481Z,97077.38
2023-09-30T10:07:51.236Z,97082.84
2023-09-30T10:13:54.861Z,97077.75
2023-09-30T10:20:08.878Z,97090.38
2023-09-30T10:26:10.586Z,97081.59
2023-09-30T10:32:12.212Z,97060.25
2023-09-30T10:38:23.137Z,97055.06
2023-09-30T10:44:27.697Z,97061.28
2023-09-30T10:50:52.229Z,97067.88
2023-09-30T10:56:54.560Z,97083.53
2023-09-30T11:02:57.567Z,97064.09
2023-09-30T11:09:02.078Z,97046.34
2023-09-30T11:15:04.374Z,97051.22
2023-09-30T11:21:11.759Z,97052.06
2023-09-30T11:27:13.599Z,97045.66
2023-09-30T11:33:15.176Z,97069.44
2023-09-30T11:39:28.395Z,97080.38
2023-09-30T11:45:30.461Z,97058.09
2023-09-30T11:51:44.642Z,97048.31
2023-09-30T11:57:46.800Z,97033.94
2023-09-30T12:03:53.775Z,97012.88
2023-09-30T12:09:57.167Z,97005.72
2023-09-30T12:15:58.888Z,97000.81
2023-09-30T12:22:00.520Z,97027.97
2023-09-30T12:28:02.176Z,97025.03
2023-09-30T12:34:03.813Z,97010.25
2023-09-30T12:40:08.821Z,97005.84
2023-09-30T12:46:10.670Z,96995.16
2023-09-30T12:52:12.654Z,96992.88
2023-09-30T12:58:14.359Z,97005.44
2023-09-30T13:04:16.125Z,97018.03
2023-09-30T13:10:17.761Z,97016.94
2023-09-30T13:16:19.673Z,97004.81
2023-09-30T13:22:21.430Z,96987.88
2023-09-30T13:28:23.012Z,96992.81
2023-09-30T13:34:24.621Z,96985.94
2023-09-30T13:40:26.674Z,96974.94
2023-09-30T13:46:29.394Z,96961.59
2023-09-30T13:52:32.844Z,96957.94
2023-09-30T13:58:35.795Z,96965.97
2023-09-30T14:04:37.375Z,96976.91
2023-09-30T14:10:39.275Z,96974.97
2023-09-30T14:16:40.943Z,96969.53
2023-09-30T14:22:42.645Z,96971.41
2023-09-30T14:28:46.234Z,96972.44
2023-09-30T14:34:48.156Z,96980.19
2023-09-30T14:40:51.272Z,96980.63
2023-09-30T14:46:53.454Z,96977.28
2023-09-30T14:52:55.302Z,96979.59
2023-09-30T14:58:58.113Z,96985.09
2023-09-30T15:04:59.789Z,96986.63
2023-09-30T15:11:02.011Z,96979.66
2023-09-30T15:17:03.629Z,96979.53
2023-09-30T15:23:05.535Z,96970.00
2023-09-30T15:29:07.097Z,96975.16
2023-09-30T15:35:09.435Z,96978.97
2023-09-30T15:41:13.788Z,96978.00
2023-09-30T15:47:15.327Z,96977.97
2023-09-30T15:53:17.348Z,96980.66
2023-09-30T15:59:19.634Z,96989.38
2023-09-30T16:05:28.754Z,97003.22
2023-09-30T16:11:30.418Z,97004.78
2023-09-30T16:17:32.557Z,97011.25
2023-09-30T16:23:34.115Z,97007.28
2023-09-30T16:29:36.571Z,96986.66
2023-09-30T16:35:38.148Z,96999.34
2023-09-30T16:41:39.689Z,97004.72
2023-09-30T16:47:41.323Z,97007.34
2023-09-30T16:53:42.914Z,97013.94
2023-09-30T16:59:46.526Z,97019.41
2023-09-30T17:05:49.177Z,97014.09
2023-09-30T17:11:50.712Z,97020.88
2023-09-30T17:17:52.292Z,97016.28
2023-09-30T17:23:53.940Z,97023.78
2023-09-30T17:29:56.427Z,97018.69
2023-09-30T17:36:05.161Z,97018.47
2023-09-30T17:42:07.017Z,97021.53
2023-09-30T17:48:10.524Z,97021.97
2023-09-30T17:54:12.297Z,97030.91
2023-09-30T18:00:14.575Z,97038.06
2023-09-30T18:06:16.408Z,97036.38
2023-09-30T18:12:17.993Z,97035.97
2023-09-30T18:18:19.597Z,97039.75
2023-09-30T18:24:21.407Z,97044.94
2023-09-30T18:30:22.969Z,97048.34
2023-09-30T18:36:24.628Z,97052.78
2023-09-30T18:42:26.648Z,97054.84
2023-09-30T18:48:28.271Z,97055.97
2023-09-30T18:54:30.126Z,97059.66
2023-09-30T19:00:32.892Z,97061.47
2023-09-30T19:06:34.936Z,97065.81
2023-09-30T19:12:36.594Z,97069.50
2023-09-30T19:18:38.213Z,97068.69
2023-09-30T19:24:39.844Z,97077.34
2023-09-30T19:30:44.208Z,97075.56
2023-09-30T19:36:46.000Z,97080.69
2023-09-30T19:42:53.105Z,97069.34
2023-09-30T19:48:55.910Z,97065.78
2023-09-30T19:54:57.661Z,97073.28
2023-09-30T20:00:59.525Z,97078.44
2023-09-30T20:07:01.822Z,97087.75
2023-09-30T20:13:09.115Z,97083.25
2023-09-30T20:19:11.402Z,97074.56
2023-09-30T20:25:14.912Z,97082.19
2023-09-30T20:31:17.049Z,97081.03
2023-09-30T20:37:18.686Z,97083.38
2023-09-30T20:43:20.314Z,97083.09
2023-09-30T20:49:21.997Z,97084.50
2023-09-30T20:55:23.620Z,97091.00
2023-09-30T21:01:25.808Z,97083.69
2023-09-30T21:07:28.911Z,97091.94
2023-09-30T21:13:30.529Z,97097.50
2023-09-30T21:19:32.145Z,97095.44
2023-09-30T21:25:36.881Z,97097.56
2023-09-30T21:31:38.569Z,97097.84
2023-09-30T21:37:40.208Z,97099.06
2023-09-30T21:43:42.247Z,97104.53
2023-09-30T21:49:44.766Z,97109.31
2023-09-30T21:55:48.607Z,97111.44
2023-09-30T22:01:50.202Z,97118.72
2023-09-30T22:07:51.779Z,97118.16
2023-09-30T22:13:53.319Z,97130.53
2023-09-30T22:19:54.864Z,97133.28
2023-09-30T22:25:56.438Z,97127.69
2023-09-30T22:31:58.014Z,97133.06
2023-09-30T22:38:00.812Z,97135.06
2023-09-30T22:44:02.322Z,97141.50
2023-09-30T22:50:04.100Z,97141.75
2023-09-30T22:56:05.679Z,97134.41
2023-09-30T23:02:07.951Z,97148.63
2023-09-30T23:08:09.557Z,97146.47
2023-09-30T23:14:11.084Z,97145.97
2023-09-30T23:20:15.977Z,97139.47
2023-09-30T23:26:19.715Z,97139.88
2023-09-30T23:32:21.313Z,97145.41
2023-09-30T23:38:23.282Z,97134.63
2023-09-30T23:44:25.197Z,97147.03
2023-09-30T23:50:27.258Z,97147.34
2023-09-30T23:56:29.693Z,97145.13
